sensor_id;sensor_type;location;lat;lon;timestamp;pressure;altitude;pressure_sealevel;temperature;humidity
18858;BME280;9558;50.178;8.370;2022-07-11T00:00:45;98953.81;;;15.89;95.29
18858;BME280;9558;50.178;8.370;2022-07-11T00:03:12;98944.53;;;15.86;95.41
18858;BME280;9558;50.178;8.370;2022-07-11T00:05:38;98949.75;;;15.86;95.35
18858;BME280;9558;50.178;8.370;2022-07-11T00:08:05;98947.94;;;15.87;95.29
18858;BME280;9558;50.178;8.370;2022-07-11T00:10:32;98945.34;;;15.87;95.51
18858;BME280;9558;50.178;8.370;2022-07-11T00:13:00;98948.59;;;15.89;95.72
18858;BME280;9558;50.178;8.370;2022-07-11T00:15:26;98941.75;;;15.88;95.65
18858;BME280;9558;50.178;8.370;2022-07-11T00:17:53;98950.56;;;15.87;95.56
18858;BME280;9558;50.178;8.370;2022-07-11T00:20:19;98944.53;;;15.86;95.49
18858;BME280;9558;50.178;8.370;2022-07-11T00:22:46;98948.16;;;15.85;95.87
18858;BME280;9558;50.178;8.370;2022-07-11T00:25:12;98943.72;;;15.86;95.75
18858;BME280;9558;50.178;8.370;2022-07-11T00:27:39;98940.13;;;15.87;95.83
18858;BME280;9558;50.178;8.370;2022-07-11T00:30:09;98939.31;;;15.86;95.88
18858;BME280;9558;50.178;8.370;2022-07-11T00:32:35;98940.13;;;15.87;95.63
18858;BME280;9558;50.178;8.370;2022-07-11T00:35:02;98927.72;;;15.89;95.83
18858;BME280;9558;50.178;8.370;2022-07-11T00:37:29;98933.91;;;15.88;96.09
18858;BME280;9558;50.178;8.370;2022-07-11T00:39:55;98930.13;;;15.91;96.03
18858;BME280;9558;50.178;8.370;2022-07-11T00:42:24;98928.50;;;15.89;95.90
18858;BME280;9558;50.178;8.370;2022-07-11T00:44:51;98927.72;;;15.89;95.76
18858;BME280;9558;50.178;8.370;2022-07-11T00:47:18;98920.84;;;15.88;95.97
18858;BME280;9558;50.178;8.370;2022-07-11T00:49:45;98920.22;;;15.86;95.68
18858;BME280;9558;50.178;8.370;2022-07-11T00:52:11;98919.63;;;15.84;95.72
18858;BME280;9558;50.178;8.370;2022-07-11T00:54:38;98917.22;;;15.82;95.90
18858;BME280;9558;50.178;8.370;2022-07-11T00:57:05;98916.22;;;15.83;95.95
18858;BME280;9558;50.178;8.370;2022-07-11T00:59:32;98918.00;;;15.83;96.11
18858;BME280;9558;50.178;8.370;2022-07-11T01:01:58;98918.25;;;15.88;96.02
18858;BME280;9558;50.178;8.370;2022-07-11T01:04:26;98910.81;;;15.85;96.19
18858;BME280;9558;50.178;8.370;2022-07-11T01:06:53;98911.19;;;15.82;95.95
18858;BME280;9558;50.178;8.370;2022-07-11T01:09:19;98904.34;;;15.81;95.92
18858;BME280;9558;50.178;8.370;2022-07-11T01:11:46;98908.75;;;15.80;96.28
18858;BME280;9558;50.178;8.370;2022-07-11T01:14:12;98908.75;;;15.80;96.20
18858;BME280;9558;50.178;8.370;2022-07-11T01:16:39;98905.16;;;15.81;96.40
18858;BME280;9558;50.178;8.370;2022-07-11T01:19:05;98911.00;;;15.83;96.40
18858;BME280;9558;50.178;8.370;2022-07-11T01:21:37;98905.59;;;15.85;96.41
18858;BME280;9558;50.178;8.370;2022-07-11T01:24:07;98901.16;;;15.85;96.33
18858;BME280;9558;50.178;8.370;2022-07-11T01:26:34;98898.75;;;15.84;96.49
18858;BME280;9558;50.178;8.370;2022-07-11T01:29:07;98898.75;;;15.84;96.18
18858;BME280;9558;50.178;8.370;2022-07-11T01:31:35;98897.13;;;15.83;96.45
18858;BME280;9558;50.178;8.370;2022-07-11T01:34:01;98895.34;;;15.83;96.33
18858;BME280;9558;50.178;8.370;2022-07-11T01:36:28;98896.75;;;15.86;96.49
18858;BME280;9558;50.178;8.370;2022-07-11T01:38:54;98893.53;;;15.84;96.60
18858;BME280;9558;50.178;8.370;2022-07-11T01:41:22;98892.53;;;15.85;96.86
18858;BME280;9558;50.178;8.370;2022-07-11T01:43:49;98887.91;;;15.87;96.60
18858;BME280;9558;50.178;8.370;2022-07-11T01:46:16;98883.69;;;15.86;96.64
18858;BME280;9558;50.178;8.370;2022-07-11T01:48:43;98883.09;;;15.84;96.37
18858;BME280;9558;50.178;8.370;2022-07-11T01:51:09;98881.06;;;15.86;96.04
18858;BME280;9558;50.178;8.370;2022-07-11T01:53:36;98889.72;;;15.86;96.10
18858;BME280;9558;50.178;8.370;2022-07-11T01:56:02;98881.06;;;15.86;96.23
18858;BME280;9558;50.178;8.370;2022-07-11T01:58:30;98884.72;;;15.85;96.22
18858;BME280;9558;50.178;8.370;2022-07-11T02:00:57;98879.47;;;15.85;96.51
18858;BME280;9558;50.178;8.370;2022-07-11T02:03:24;98883.50;;;15.87;96.40
18858;BME280;9558;50.178;8.370;2022-07-11T02:05:51;98879.47;;;15.85;96.63
18858;BME280;9558;50.178;8.370;2022-07-11T02:08:17;98883.47;;;15.81;96.49
18858;BME280;9558;50.178;8.370;2022-07-11T02:10:45;98874.81;;;15.80;96.75
18858;BME280;9558;50.178;8.370;2022-07-11T02:13:13;98881.84;;;15.80;96.80
18858;BME280;9558;50.178;8.370;2022-07-11T02:15:42;98882.66;;;15.80;96.64
18858;BME280;9558;50.178;8.370;2022-07-11T02:18:10;98875.84;;;15.79;96.65
18858;BME280;9558;50.178;8.370;2022-07-11T02:20:39;98881.84;;;15.80;96.90
18858;BME280;9558;50.178;8.370;2022-07-11T02:23:06;98877.63;;;15.79;96.92
18858;BME280;9558;50.178;8.370;2022-07-11T02:25:33;98874.56;;;15.75;97.20
18858;BME280;9558;50.178;8.370;2022-07-11T02:28:00;98873.75;;;15.75;96.87
18858;BME280;9558;50.178;8.370;2022-07-11T02:30:27;98870.53;;;15.72;96.67
18858;BME280;9558;50.178;8.370;2022-07-11T02:32:55;98872.94;;;15.74;96.81
18858;BME280;9558;50.178;8.370;2022-07-11T02:35:21;98865.13;;;15.74;96.91
18858;BME280;9558;50.178;8.370;2022-07-11T02:37:48;98868.53;;;15.75;97.28
18858;BME280;9558;50.178;8.370;2022-07-11T02:40:15;98865.31;;;15.72;97.06
18858;BME280;9558;50.178;8.370;2022-07-11T02:42:41;98864.72;;;15.70;97.05
18858;BME280;9558;50.178;8.370;2022-07-11T02:45:09;98869.31;;;15.68;97.19
18858;BME280;9558;50.178;8.370;2022-07-11T02:47:35;98865.06;;;15.67;96.84
18858;BME280;9558;50.178;8.370;2022-07-11T02:50:07;98864.28;;;15.67;97.39
18858;BME280;9558;50.178;8.370;2022-07-11T02:52:33;98872.09;;;15.67;97.08
18858;BME280;9558;50.178;8.370;2022-07-11T02:55:00;98869.31;;;15.68;97.28
18858;BME280;9558;50.178;8.370;2022-07-11T02:57:27;98870.09;;;15.69;97.08
18858;BME280;9558;50.178;8.370;2022-07-11T02:59:54;98869.31;;;15.68;97.38
18858;BME280;9558;50.178;8.370;2022-07-11T03:02:20;98869.31;;;15.68;97.56
18858;BME280;9558;50.178;8.370;2022-07-11T03:04:47;98874.97;;;15.72;97.44
18858;BME280;9558;50.178;8.370;2022-07-11T03:07:14;98868.13;;;15.71;97.27
18858;BME280;9558;50.178;8.370;2022-07-11T03:09:41;98876.56;;;15.73;97.63
18858;BME280;9558;50.178;8.370;2022-07-11T03:12:08;98872.75;;;15.76;97.42
18858;BME280;9558;50.178;8.370;2022-07-11T03:14:34;98873.75;;;15.75;97.58
18858;BME280;9558;50.178;8.370;2022-07-11T03:17:01;98873.34;;;15.71;97.49
18858;BME280;9558;50.178;8.370;2022-07-11T03:19:27;98871.91;;;15.68;97.61
18858;BME280;9558;50.178;8.370;2022-07-11T03:21:54;98872.09;;;15.67;97.73
18858;BME280;9558;50.178;8.370;2022-07-11T03:24:22;98875.50;;;15.67;97.82
18858;BME280;9558;50.178;8.370;2022-07-11T03:26:48;98867.69;;;15.67;97.87
18858;BME280;9558;50.178;8.370;2022-07-11T03:29:15;98870.28;;;15.67;97.87
18858;BME280;9558;50.178;8.370;2022-07-11T03:31:43;98873.53;;;15.69;98.17
18858;BME280;9558;50.178;8.370;2022-07-11T03:34:09;98874.13;;;15.71;98.21
18858;BME280;9558;50.178;8.370;2022-07-11T03:36:36;98870.91;;;15.69;98.12
18858;BME280;9558;50.178;8.370;2022-07-11T03:39:02;98869.31;;;15.68;98.23
18858;BME280;9558;50.178;8.370;2022-07-11T03:41:30;98868.50;;;15.68;98.18
18858;BME280;9558;50.178;8.370;2022-07-11T03:43:57;98866.88;;;15.67;98.26
18858;BME280;9558;50.178;8.370;2022-07-11T03:46:23;98868.50;;;15.68;98.09
18858;BME280;9558;50.178;8.370;2022-07-11T03:48:50;98872.91;;;15.67;98.19
18858;BME280;9558;50.178;8.370;2022-07-11T03:51:16;98870.91;;;15.69;98.24
18858;BME280;9558;50.178;8.370;2022-07-11T03:53:43;98869.75;;;15.72;98.34
18858;BME280;9558;50.178;8.370;2022-07-11T03:56:09;98869.53;;;15.73;98.38
18858;BME280;9558;50.178;8.370;2022-07-11T03:58:38;98862.50;;;15.74;98.21
18858;BME280;9558;50.178;8.370;2022-07-11T04:01:05;98860.69;;;15.75;97.93
18858;BME280;9558;50.178;8.370;2022-07-11T04:03:31;98860.69;;;15.75;98.39
18858;BME280;9558;50.178;8.370;2022-07-11T04:05:58;98862.94;;;15.78;97.94
18858;BME280;9558;50.178;8.370;2022-07-11T04:08:24;98857.72;;;15.78;98.04
18858;BME280;9558;50.178;8.370;2022-07-11T04:10:51;98854.75;;;15.81;98.07
18858;BME280;9558;50.178;8.370;2022-07-11T04:13:17;98857.97;;;15.83;97.99
18858;BME280;9558;50.178;8.370;2022-07-11T04:15:45;98853.38;;;15.85;98.15
18858;BME280;9558;50.178;8.370;2022-07-11T04:18:12;98867.84;;;15.87;98.26
18858;BME280;9558;50.178;8.370;2022-07-11T04:20:39;98861.03;;;15.93;98.10
18858;BME280;9558;50.178;8.370;2022-07-11T04:23:06;98859.06;;;15.95;97.94
18858;BME280;9558;50.178;8.370;2022-07-11T04:25:33;98853.44;;;15.98;97.71
18858;BME280;9558;50.178;8.370;2022-07-11T04:27:59;98863.50;;;16.01;97.67
18858;BME280;9558;50.178;8.370;2022-07-11T04:30:26;98858.72;;;16.05;97.52
18858;BME280;9558;50.178;8.370;2022-07-11T04:32:54;98849.50;;;16.09;97.52
18858;BME280;9558;50.178;8.370;2022-07-11T04:35:21;98859.16;;;16.15;97.31
18858;BME280;9558;50.178;8.370;2022-07-11T04:37:48;98861.19;;;16.20;97.05
18858;BME280;9558;50.178;8.370;2022-07-11T04:40:15;98848.75;;;16.22;97.02
18858;BME280;9558;50.178;8.370;2022-07-11T04:42:42;98853.56;;;16.25;96.70
18858;BME280;9558;50.178;8.370;2022-07-11T04:45:10;98860.63;;;16.31;96.60
18858;BME280;9558;50.178;8.370;2022-07-11T04:47:36;98860.22;;;16.34;96.26
18858;BME280;9558;50.178;8.370;2022-07-11T04:50:05;98858.84;;;16.38;95.97
18858;BME280;9558;50.178;8.370;2022-07-11T04:52:31;98861.69;;;16.44;95.79
18858;BME280;9558;50.178;8.370;2022-07-11T04:54:58;98867.50;;;16.46;95.78
18858;BME280;9558;50.178;8.370;2022-07-11T04:57:25;98871.34;;;16.50;95.74
18858;BME280;9558;50.178;8.370;2022-07-11T04:59:51;98870.53;;;16.56;95.37
18858;BME280;9558;50.178;8.370;2022-07-11T05:02:18;98879.03;;;16.65;94.92
18858;BME280;9558;50.178;8.370;2022-07-11T05:04:46;98879.03;;;16.71;94.66
18858;BME280;9558;50.178;8.370;2022-07-11T05:07:13;98881.69;;;16.78;94.18
18858;BME280;9558;50.178;8.370;2022-07-11T05:09:40;98888.50;;;16.86;93.65
18858;BME280;9558;50.178;8.370;2022-07-11T05:12:07;98890.97;;;16.94;93.57
18858;BME280;9558;50.178;8.370;2022-07-11T05:14:34;98888.78;;;17.04;93.21
18858;BME280;9558;50.178;8.370;2022-07-11T05:17:01;98896.44;;;17.13;92.77
18858;BME280;9558;50.178;8.370;2022-07-11T05:19:28;98893.63;;;17.21;92.30
18858;BME280;9558;50.178;8.370;2022-07-11T05:21:54;98896.44;;;17.26;91.59
18858;BME280;9558;50.178;8.370;2022-07-11T05:24:22;98906.13;;;17.32;91.00
18858;BME280;9558;50.178;8.370;2022-07-11T05:26:49;98896.47;;;17.39;90.20
18858;BME280;9558;50.178;8.370;2022-07-11T05:29:15;98899.28;;;17.44;90.07
18858;BME280;9558;50.178;8.370;2022-07-11T05:31:42;98905.94;;;17.54;89.35
18858;BME280;9558;50.178;8.370;2022-07-11T05:34:15;98909.75;;;17.58;89.05
18858;BME280;9558;50.178;8.370;2022-07-11T05:36:42;98907.72;;;17.60;88.69
18858;BME280;9558;50.178;8.370;2022-07-11T05:39:09;98909.56;;;17.66;88.78
18858;BME280;9558;50.178;8.370;2022-07-11T05:41:37;98912.97;;;17.73;88.90
18858;BME280;9558;50.178;8.370;2022-07-11T05:44:04;98911.72;;;17.83;88.49
18858;BME280;9558;50.178;8.370;2022-07-11T05:46:30;98915.78;;;17.92;88.35
18858;BME280;9558;50.178;8.370;2022-07-11T05:48:57;98916.16;;;18.02;88.04
18858;BME280;9558;50.178;8.370;2022-07-11T05:51:23;98909.47;;;18.13;87.44
18858;BME280;9558;50.178;8.370;2022-07-11T05:53:50;98903.81;;;18.23;86.35
18858;BME280;9558;50.178;8.370;2022-07-11T05:56:16;98907.22;;;18.30;86.30
18858;BME280;9558;50.178;8.370;2022-07-11T05:58:44;98909.66;;;18.25;85.47
18858;BME280;9558;50.178;8.370;2022-07-11T06:01:10;98903.81;;;18.23;85.38
18858;BME280;9558;50.178;8.370;2022-07-11T06:03:37;98907.63;;;18.20;85.23
18858;BME280;9558;50.178;8.370;2022-07-11T06:06:04;98906.66;;;18.14;84.34
18858;BME280;9558;50.178;8.370;2022-07-11T06:08:32;98904.44;;;18.11;84.94
18858;BME280;9558;50.178;8.370;2022-07-11T06:11:07;98902.03;;;18.03;84.96
18858;BME280;9558;50.178;8.370;2022-07-11T06:13:35;98895.63;;;17.99;85.06
18858;BME280;9558;50.178;8.370;2022-07-11T06:16:03;98893.59;;;18.01;85.03
18858;BME280;9558;50.178;8.370;2022-07-11T06:18:30;98896.78;;;18.17;84.64
18858;BME280;9558;50.178;8.370;2022-07-11T06:20:57;98903.09;;;18.47;83.58
18858;BME280;9558;50.178;8.370;2022-07-11T06:23:23;98901.09;;;18.95;82.88
18858;BME280;9558;50.178;8.370;2022-07-11T06:25:50;98898.38;;;19.59;80.19
18858;BME280;9558;50.178;8.370;2022-07-11T06:28:16;98898.63;;;20.19;77.67
18858;BME280;9558;50.178;8.370;2022-07-11T06:30:43;98901.44;;;20.85;74.33
18858;BME280;9558;50.178;8.370;2022-07-11T06:33:11;98900.00;;;21.55;72.03
18858;BME280;9558;50.178;8.370;2022-07-11T06:35:38;98891.44;;;22.24;68.07
18858;BME280;9558;50.178;8.370;2022-07-11T06:38:06;98896.44;;;22.95;66.28
18858;BME280;9558;50.178;8.370;2022-07-11T06:40:33;98901.28;;;23.67;63.84
18858;BME280;9558;50.178;8.370;2022-07-11T06:42:59;98901.47;;;24.21;61.02
18858;BME280;9558;50.178;8.370;2022-07-11T06:45:26;98903.06;;;24.66;57.55
18858;BME280;9558;50.178;8.370;2022-07-11T06:47:52;98908.81;;;25.18;58.81
18858;BME280;9558;50.178;8.370;2022-07-11T06:50:20;98916.84;;;25.61;57.03
18858;BME280;9558;50.178;8.370;2022-07-11T06:52:47;98919.97;;;26.00;55.19
18858;BME280;9558;50.178;8.370;2022-07-11T06:55:13;98917.53;;;26.47;53.39
18858;BME280;9558;50.178;8.370;2022-07-11T06:57:40;98916.03;;;26.77;50.99
18858;BME280;9558;50.178;8.370;2022-07-11T07:00:08;98914.44;;;26.96;51.76
18858;BME280;9558;50.178;8.370;2022-07-11T07:02:35;98918.41;;;26.99;51.24
18858;BME280;9558;50.178;8.370;2022-07-11T07:05:02;98922.94;;;26.98;51.03
18858;BME280;9558;50.178;8.370;2022-07-11T07:07:30;98921.88;;;26.94;50.35
18858;BME280;9558;50.178;8.370;2022-07-11T07:09:56;98921.34;;;26.97;50.70
18858;BME280;9558;50.178;8.370;2022-07-11T07:12:23;98929.81;;;26.68;51.28
18858;BME280;9558;50.178;8.370;2022-07-11T07:14:50;98923.97;;;26.71;51.00
18858;BME280;9558;50.178;8.370;2022-07-11T07:17:16;98924.59;;;26.26;51.79
18858;BME280;9558;50.178;8.370;2022-07-11T07:19:44;98925.50;;;25.94;52.97
18858;BME280;9558;50.178;8.370;2022-07-11T07:22:11;98913.25;;;25.45;53.06
18858;BME280;9558;50.178;8.370;2022-07-11T07:24:42;98920.63;;;25.05;54.36
18858;BME280;9558;50.178;8.370;2022-07-11T07:27:09;98916.84;;;24.69;55.67
18858;BME280;9558;50.178;8.370;2022-07-11T07:29:36;98922.47;;;24.28;56.39
18858;BME280;9558;50.178;8.370;2022-07-11T07:32:04;98925.44;;;23.75;57.54
18858;BME280;9558;50.178;8.370;2022-07-11T07:34:30;98931.09;;;23.45;58.94
18858;BME280;9558;50.178;8.370;2022-07-11T07:36:57;98930.34;;;23.16;59.93
18858;BME280;9558;50.178;8.370;2022-07-11T07:39:24;98927.56;;;22.93;61.30
18858;BME280;9558;50.178;8.370;2022-07-11T07:41:51;98928.44;;;22.82;61.76
18858;BME280;9558;50.178;8.370;2022-07-11T07:44:18;98919.28;;;22.73;62.19
18858;BME280;9558;50.178;8.370;2022-07-11T07:46:45;98925.50;;;22.67;63.02
18858;BME280;9558;50.178;8.370;2022-07-11T07:49:12;98926.72;;;22.47;62.79
18858;BME280;9558;50.178;8.370;2022-07-11T07:51:38;98914.72;;;22.39;63.55
18858;BME280;9558;50.178;8.370;2022-07-11T07:54:05;98927.09;;;22.27;63.72
18858;BME280;9558;50.178;8.370;2022-07-11T07:56:31;98927.59;;;22.12;63.70
18858;BME280;9558;50.178;8.370;2022-07-11T07:58:59;98922.09;;;21.90;64.70
18858;BME280;9558;50.178;8.370;2022-07-11T08:01:26;98929.19;;;21.78;65.16
18858;BME280;9558;50.178;8.370;2022-07-11T08:04:02;98924.94;;;21.65;65.36
18858;BME280;9558;50.178;8.370;2022-07-11T08:06:29;98936.88;;;21.55;65.83
18858;BME280;9558;50.178;8.370;2022-07-11T08:08:55;98932.59;;;21.43;66.34
18858;BME280;9558;50.178;8.370;2022-07-11T08:11:22;98948.03;;;21.39;66.75
18858;BME280;9558;50.178;8.370;2022-07-11T08:13:48;98944.13;;;21.30;67.39
18858;BME280;9558;50.178;8.370;2022-07-11T08:16:17;98948.69;;;21.22;67.61
18858;BME280;9558;50.178;8.370;2022-07-11T08:18:43;98937.91;;;21.12;67.86
18858;BME280;9558;50.178;8.370;2022-07-11T08:21:10;98933.69;;;21.11;68.08
18858;BME280;9558;50.178;8.370;2022-07-11T08:23:36;98935.00;;;21.02;68.09
18858;BME280;9558;50.178;8.370;2022-07-11T08:26:03;98941.84;;;20.91;68.27
18858;BME280;9558;50.178;8.370;2022-07-11T08:28:30;98938.28;;;20.85;68.42
18858;BME280;9558;50.178;8.370;2022-07-11T08:30:56;98936.09;;;20.82;68.34
18858;BME280;9558;50.178;8.370;2022-07-11T08:33:24;98940.31;;;20.83;68.21
18858;BME280;9558;50.178;8.370;2022-07-11T08:35:51;98934.75;;;20.92;68.03
18858;BME280;9558;50.178;8.370;2022-07-11T08:38:17;98938.31;;;20.97;67.76
18858;BME280;9558;50.178;8.370;2022-07-11T08:40:44;98946.91;;;21.04;67.62
18858;BME280;9558;50.178;8.370;2022-07-11T08:43:14;98942.72;;;21.15;67.97
18858;BME280;9558;50.178;8.370;2022-07-11T08:45:41;98940.22;;;21.20;67.77
18858;BME280;9558;50.178;8.370;2022-07-11T08:48:08;98941.13;;;21.26;67.09
18858;BME280;9558;50.178;8.370;2022-07-11T08:50:36;98935.63;;;21.28;66.79
18858;BME280;9558;50.178;8.370;2022-07-11T08:53:04;98938.31;;;21.39;66.30
18858;BME280;9558;50.178;8.370;2022-07-11T08:55:31;98941.09;;;22.16;64.83
18858;BME280;9558;50.178;8.370;2022-07-11T08:57:58;98945.53;;;22.39;64.68
18858;BME280;9558;50.178;8.370;2022-07-11T09:00:24;98945.78;;;22.66;63.21
18858;BME280;9558;50.178;8.370;2022-07-11T09:02:52;98934.41;;;22.77;62.70
18858;BME280;9558;50.178;8.370;2022-07-11T09:05:19;98943.78;;;22.85;61.99
18858;BME280;9558;50.178;8.370;2022-07-11T09:07:48;98944.28;;;22.82;61.82
18858;BME280;9558;50.178;8.370;2022-07-11T09:10:17;98944.16;;;22.77;61.52
18858;BME280;9558;50.178;8.370;2022-07-11T09:13:01;98947.94;;;22.81;60.48
18858;BME280;9558;50.178;8.370;2022-07-11T09:15:32;98939.44;;;22.79;61.07
18858;BME280;9558;50.178;8.370;2022-07-11T09:17:59;98936.91;;;22.84;61.29
18858;BME280;9558;50.178;8.370;2022-07-11T09:20:26;98931.66;;;23.01;60.69
18858;BME280;9558;50.178;8.370;2022-07-11T09:23:21;98932.34;;;23.59;60.38
18858;BME280;9558;50.178;8.370;2022-07-11T09:26:05;98931.78;;;23.91;59.43
18858;BME280;9558;50.178;8.370;2022-07-11T09:28:31;98925.44;;;23.92;57.28
18858;BME280;9558;50.178;8.370;2022-07-11T09:30:59;98928.97;;;23.98;57.53
18858;BME280;9558;50.178;8.370;2022-07-11T09:33:25;98929.25;;;24.02;57.03
18858;BME280;9558;50.178;8.370;2022-07-11T09:35:53;98931.47;;;24.10;56.86
18858;BME280;9558;50.178;8.370;2022-07-11T09:38:21;98928.34;;;24.13;56.70
18858;BME280;9558;50.178;8.370;2022-07-11T09:40:48;98928.91;;;24.15;56.40
18858;BME280;9558;50.178;8.370;2022-07-11T09:43:24;98927.44;;;24.02;56.56
18858;BME280;9558;50.178;8.370;2022-07-11T09:45:50;98925.25;;;23.99;56.77
18858;BME280;9558;50.178;8.370;2022-07-11T09:48:17;98920.03;;;24.04;57.20
18858;BME280;9558;50.178;8.370;2022-07-11T09:50:55;98911.31;;;24.04;56.57
18858;BME280;9558;50.178;8.370;2022-07-11T09:53:26;98907.31;;;24.01;56.59
18858;BME280;9558;50.178;8.370;2022-07-11T09:55:53;98916.53;;;23.98;56.95
18858;BME280;9558;50.178;8.370;2022-07-11T09:58:28;98917.81;;;23.96;57.00
18858;BME280;9558;50.178;8.370;2022-07-11T10:00:57;98914.88;;;23.92;56.79
18858;BME280;9558;50.178;8.370;2022-07-11T10:03:25;98910.69;;;23.96;57.75
18858;BME280;9558;50.178;8.370;2022-07-11T10:05:51;98908.59;;;23.98;57.11
18858;BME280;9558;50.178;8.370;2022-07-11T10:08:18;98911.31;;;24.04;56.95
18858;BME280;9558;50.178;8.370;2022-07-11T10:10:46;98917.66;;;24.03;55.55
18858;BME280;9558;50.178;8.370;2022-07-11T10:13:12;98921.56;;;24.00;55.36
18858;BME280;9558;50.178;8.370;2022-07-11T10:15:40;98919.31;;;24.09;55.99
18858;BME280;9558;50.178;8.370;2022-07-11T10:18:14;98926.19;;;24.10;55.13
18858;BME280;9558;50.178;8.370;2022-07-11T10:20:51;98923.56;;;24.10;55.42
18858;BME280;9558;50.178;8.370;2022-07-11T10:23:25;98920.53;;;24.01;55.60
18858;BME280;9558;50.178;8.370;2022-07-11T10:26:01;98925.44;;;23.92;55.66
18858;BME280;9558;50.178;8.370;2022-07-11T10:28:32;98924.78;;;23.85;56.20
18858;BME280;9558;50.178;8.370;2022-07-11T10:31:01;98925.50;;;23.80;56.03
18858;BME280;9558;50.178;8.370;2022-07-11T10:33:29;98924.22;;;23.83;56.15
18858;BME280;9558;50.178;8.370;2022-07-11T10:35:56;98923.06;;;23.91;56.13
18858;BME280;9558;50.178;8.370;2022-07-11T10:38:24;98922.34;;;24.01;56.25
18858;BME280;9558;50.178;8.370;2022-07-11T10:40:52;98923.56;;;24.10;56.21
18858;BME280;9558;50.178;8.370;2022-07-11T10:43:37;98924.09;;;24.12;56.13
18858;BME280;9558;50.178;8.370;2022-07-11T10:46:07;98914.94;;;24.20;56.53
18858;BME280;9558;50.178;8.370;2022-07-11T10:48:35;98924.25;;;24.22;56.49
18858;BME280;9558;50.178;8.370;2022-07-11T10:51:14;98922.63;;;24.21;55.40
18858;BME280;9558;50.178;8.370;2022-07-11T10:53:46;98921.66;;;24.27;55.20
18858;BME280;9558;50.178;8.370;2022-07-11T10:59:15;98923.97;;;24.46;54.48
18858;BME280;9558;50.178;8.370;2022-07-11T11:02:02;98919.44;;;24.41;52.96
18858;BME280;9558;50.178;8.370;2022-07-11T11:04:42;98914.50;;;24.50;54.34
18858;BME280;9558;50.178;8.370;2022-07-11T11:07:27;98928.91;;;24.37;53.83
18858;BME280;9558;50.178;8.370;2022-07-11T11:09:54;98916.06;;;24.24;53.91
18858;BME280;9558;50.178;8.370;2022-07-11T11:15:44;98916.59;;;24.04;54.37
18858;BME280;9558;50.178;8.370;2022-07-11T11:18:33;98916.59;;;24.04;54.80
18858;BME280;9558;50.178;8.370;2022-07-11T11:21:21;98914.63;;;24.16;55.81
18858;BME280;9558;50.178;8.370;2022-07-11T11:24:05;98910.44;;;24.20;53.69
18858;BME280;9558;50.178;8.370;2022-07-11T11:26:50;98906.03;;;24.26;54.32
18858;BME280;9558;50.178;8.370;2022-07-11T11:29:20;98905.88;;;24.38;54.74
18858;BME280;9558;50.178;8.370;2022-07-11T11:31:53;98917.56;;;24.42;54.33
18858;BME280;9558;50.178;8.370;2022-07-11T11:34:21;98911.59;;;24.52;54.13
18858;BME280;9558;50.178;8.370;2022-07-11T11:36:56;98914.56;;;24.55;54.04
18858;BME280;9558;50.178;8.370;2022-07-11T11:39:28;98922.50;;;24.55;54.13
18858;BME280;9558;50.178;8.370;2022-07-11T11:42:04;98925.69;;;24.57;54.25
18858;BME280;9558;50.178;8.370;2022-07-11T11:44:31;98919.41;;;24.63;54.34
18858;BME280;9558;50.178;8.370;2022-07-11T11:46:59;98919.72;;;24.67;54.16
18858;BME280;9558;50.178;8.370;2022-07-11T11:49:26;98914.50;;;24.72;53.59
18858;BME280;9558;50.178;8.370;2022-07-11T11:51:54;98923.53;;;24.76;53.53
18858;BME280;9558;50.178;8.370;2022-07-11T11:54:22;98927.22;;;24.75;53.19
18858;BME280;9558;50.178;8.370;2022-07-11T11:56:49;98928.34;;;24.79;53.46
18858;BME280;9558;50.178;8.370;2022-07-11T11:59:16;98922.22;;;24.79;53.27
18858;BME280;9558;50.178;8.370;2022-07-11T12:01:44;98925.31;;;24.71;52.59
18858;BME280;9558;50.178;8.370;2022-07-11T12:04:13;98924.25;;;24.66;52.54
18858;BME280;9558;50.178;8.370;2022-07-11T12:06:41;98929.59;;;24.49;52.71
18858;BME280;9558;50.178;8.370;2022-07-11T12:09:10;98930.09;;;24.46;53.15
18858;BME280;9558;50.178;8.370;2022-07-11T12:11:38;98919.97;;;24.43;52.42
18858;BME280;9558;50.178;8.370;2022-07-11T12:14:06;98922.38;;;24.45;53.30
18858;BME280;9558;50.178;8.370;2022-07-11T12:16:33;98919.28;;;24.53;53.95
18858;BME280;9558;50.178;8.370;2022-07-11T12:19:09;98917.63;;;24.69;53.79
18858;BME280;9558;50.178;8.370;2022-07-11T12:21:40;98911.50;;;24.91;53.84
18858;BME280;9558;50.178;8.370;2022-07-11T12:24:09;98921.84;;;24.92;51.12
18858;BME280;9558;50.178;8.370;2022-07-11T12:26:38;98916.03;;;24.95;52.50
18858;BME280;9558;50.178;8.370;2022-07-11T12:29:06;98925.09;;;25.05;52.97
18858;BME280;9558;50.178;8.370;2022-07-11T12:31:44;98908.81;;;25.18;52.87
18858;BME280;9558;50.178;8.370;2022-07-11T12:34:11;98914.97;;;25.24;52.27
18858;BME280;9558;50.178;8.370;2022-07-11T12:36:39;98916.53;;;25.25;52.44
18858;BME280;9558;50.178;8.370;2022-07-11T12:39:06;98915.31;;;25.32;52.07
18858;BME280;9558;50.178;8.370;2022-07-11T12:41:34;98917.44;;;25.35;52.07
18858;BME280;9558;50.178;8.370;2022-07-11T12:44:01;98912.78;;;25.48;52.25
18858;BME280;9558;50.178;8.370;2022-07-11T12:46:45;98917.63;;;25.61;50.95
18858;BME280;9558;50.178;8.370;2022-07-11T12:49:14;98912.91;;;25.68;51.36
18858;BME280;9558;50.178;8.370;2022-07-11T12:51:44;98910.50;;;25.67;50.25
18858;BME280;9558;50.178;8.370;2022-07-11T12:54:12;98909.41;;;25.63;50.04
18858;BME280;9558;50.178;8.370;2022-07-11T12:56:40;98906.22;;;25.61;50.05
18858;BME280;9558;50.178;8.370;2022-07-11T12:59:17;98906.00;;;25.67;50.39
18858;BME280;9558;50.178;8.370;2022-07-11T13:01:54;98908.91;;;25.66;50.47
18858;BME280;9558;50.178;8.370;2022-07-11T13:04:35;98904.16;;;25.73;50.77
18858;BME280;9558;50.178;8.370;2022-07-11T13:07:24;98905.25;;;25.77;50.69
18858;BME280;9558;50.178;8.370;2022-07-11T13:10:10;98897.09;;;25.89;50.82
18858;BME280;9558;50.178;8.370;2022-07-11T13:12:37;98901.31;;;25.85;50.27
18858;BME280;9558;50.178;8.370;2022-07-11T13:15:06;98901.31;;;25.85;49.46
18858;BME280;9558;50.178;8.370;2022-07-11T13:17:35;98914.75;;;25.68;49.95
18858;BME280;9558;50.178;8.370;2022-07-11T13:20:03;98914.16;;;25.56;50.08
18858;BME280;9558;50.178;8.370;2022-07-11T13:22:32;98905.88;;;25.47;50.36